sensor_id;sensor_type;location;lat;lon;timestamp;temperature;humidity
23147;DHT22;11742;53.532;-1.478;2023-09-19T00:01:20;17.30;80.60
23147;DHT22;11742;53.532;-1.478;2023-09-19T00:04:04;17.30;80.60
23147;DHT22;11742;53.532;-1.478;2023-09-19T00:06:54;17.20;80.50
23147;DHT22;11742;53.532;-1.478;2023-09-19T00:09:38;17.20;80.60
23147;DHT22;11742;53.532;-1.478;2023-09-19T00:12:22;17.20;80.60
23147;DHT22;11742;53.532;-1.478;2023-09-19T00:15:09;17.20;80.60
23147;DHT22;11742;53.532;-1.478;2023-09-19T00:17:55;17.20;80.60
23147;DHT22;11742;53.532;-1.478;2023-09-19T00:20:39;17.10;80.60
23147;DHT22;11742;53.532;-1.478;2023-09-19T00:23:26;17.10;80.60
23147;DHT22;11742;53.532;-1.478;2023-09-19T00:26:12;17.10;80.60
23147;DHT22;11742;53.532;-1.478;2023-09-19T00:28:56;17.10;80.60
23147;DHT22;11742;53.532;-1.478;2023-09-19T00:31:43;17.00;80.50
23147;DHT22;11742;53.532;-1.478;2023-09-19T00:34:27;17.10;80.60
23147;DHT22;11742;53.532;-1.478;2023-09-19T00:37:12;17.00;80.50
23147;DHT22;11742;53.532;-1.478;2023-09-19T00:39:56;17.00;80.50
23147;DHT22;11742;53.532;-1.478;2023-09-19T00:42:45;17.00;80.50
23147;DHT22;11742;53.532;-1.478;2023-09-19T00:45:29;17.00;80.50
23147;DHT22;11742;53.532;-1.478;2023-09-19T00:48:15;17.00;80.50
23147;DHT22;11742;53.532;-1.478;2023-09-19T00:51:02;17.00;80.50
23147;DHT22;11742;53.532;-1.478;2023-09-19T00:53:48;17.00;80.50
23147;DHT22;11742;53.532;-1.478;2023-09-19T00:56:33;16.90;80.40
23147;DHT22;11742;53.532;-1.478;2023-09-19T00:59:18;16.90;80.50
23147;DHT22;11742;53.532;-1.478;2023-09-19T01:02:02;16.90;80.50
23147;DHT22;11742;53.532;-1.478;2023-09-19T01:04:47;16.90;80.50
23147;DHT22;11742;53.532;-1.478;2023-09-19T01:07:32;16.90;80.50
23147;DHT22;11742;53.532;-1.478;2023-09-19T01:10:20;16.80;80.50
23147;DHT22;11742;53.532;-1.478;2023-09-19T01:13:13;16.80;80.50
23147;DHT22;11742;53.532;-1.478;2023-09-19T01:16:23;16.80;80.50
23147;DHT22;11742;53.532;-1.478;2023-09-19T01:19:24;16.80;80.50
23147;DHT22;11742;53.532;-1.478;2023-09-19T01:22:16;16.80;80.60
23147;DHT22;11742;53.532;-1.478;2023-09-19T01:31:14;16.80;80.60
23147;DHT22;11742;53.532;-1.478;2023-09-19T01:34:02;16.70;80.60
23147;DHT22;11742;53.532;-1.478;2023-09-19T01:36:51;16.70;80.60
23147;DHT22;11742;53.532;-1.478;2023-09-19T01:39:35;16.70;80.60
23147;DHT22;11742;53.532;-1.478;2023-09-19T01:42:37;16.70;80.60
23147;DHT22;11742;53.532;-1.478;2023-09-19T01:45:32;16.70;80.50
23147;DHT22;11742;53.532;-1.478;2023-09-19T01:51:20;16.70;80.60
23147;DHT22;11742;53.532;-1.478;2023-09-19T01:54:11;16.60;80.60
23147;DHT22;11742;53.532;-1.478;2023-09-19T01:57:16;16.60;80.60
23147;DHT22;11742;53.532;-1.478;2023-09-19T02:00:09;16.60;80.70
23147;DHT22;11742;53.532;-1.478;2023-09-19T02:02:56;16.60;80.70
23147;DHT22;11742;53.532;-1.478;2023-09-19T02:05:49;16.60;80.70
23147;DHT22;11742;53.532;-1.478;2023-09-19T02:08:34;16.60;80.70
23147;DHT22;11742;53.532;-1.478;2023-09-19T02:11:19;16.50;80.70
23147;DHT22;11742;53.532;-1.478;2023-09-19T02:14:03;16.60;80.70
23147;DHT22;11742;53.532;-1.478;2023-09-19T02:16:48;16.60;80.70
23147;DHT22;11742;53.532;-1.478;2023-09-19T02:19:34;16.60;80.70
23147;DHT22;11742;53.532;-1.478;2023-09-19T02:22:19;16.50;80.70
23147;DHT22;11742;53.532;-1.478;2023-09-19T02:25:03;16.50;80.70
23147;DHT22;11742;53.532;-1.478;2023-09-19T02:27:48;16.60;80.80
23147;DHT22;11742;53.532;-1.478;2023-09-19T02:30:32;16.50;80.70
23147;DHT22;11742;53.532;-1.478;2023-09-19T02:33:17;16.50;80.80
23147;DHT22;11742;53.532;-1.478;2023-09-19T02:36:01;16.50;80.80
23147;DHT22;11742;53.532;-1.478;2023-09-19T02:38:49;16.50;80.80
23147;DHT22;11742;53.532;-1.478;2023-09-19T02:41:33;16.50;80.80
23147;DHT22;11742;53.532;-1.478;2023-09-19T02:44:17;16.50;80.80
23147;DHT22;11742;53.532;-1.478;2023-09-19T02:47:04;16.50;80.90
23147;DHT22;11742;53.532;-1.478;2023-09-19T02:49:48;16.50;80.90
23147;DHT22;11742;53.532;-1.478;2023-09-19T02:52:33;16.40;80.80
23147;DHT22;11742;53.532;-1.478;2023-09-19T02:55:19;16.40;80.80
23147;DHT22;11742;53.532;-1.478;2023-09-19T02:58:03;16.40;80.80
23147;DHT22;11742;53.532;-1.478;2023-09-19T03:00:51;16.40;80.80
23147;DHT22;11742;53.532;-1.478;2023-09-19T03:03:35;16.40;80.80
23147;DHT22;11742;53.532;-1.478;2023-09-19T03:06:22;16.40;80.80
23147;DHT22;11742;53.532;-1.478;2023-09-19T03:09:07;16.40;80.80
23147;DHT22;11742;53.532;-1.478;2023-09-19T03:11:57;16.40;80.80
23147;DHT22;11742;53.532;-1.478;2023-09-19T03:14:43;16.40;80.80
23147;DHT22;11742;53.532;-1.478;2023-09-19T03:17:27;16.40;80.80
23147;DHT22;11742;53.532;-1.478;2023-09-19T03:20:12;16.40;80.80
23147;DHT22;11742;53.532;-1.478;2023-09-19T03:22:58;16.40;80.80
23147;DHT22;11742;53.532;-1.478;2023-09-19T03:25:43;16.40;80.80
23147;DHT22;11742;53.532;-1.478;2023-09-19T03:28:27;16.40;80.80
23147;DHT22;11742;53.532;-1.478;2023-09-19T03:31:11;16.40;80.80
23147;DHT22;11742;53.532;-1.478;2023-09-19T03:33:55;16.40;80.80
23147;DHT22;11742;53.532;-1.478;2023-09-19T03:36:40;16.40;80.80
23147;DHT22;11742;53.532;-1.478;2023-09-19T03:39:25;16.40;80.80
23147;DHT22;11742;53.532;-1.478;2023-09-19T03:42:09;16.30;80.60
23147;DHT22;11742;53.532;-1.478;2023-09-19T03:44:53;16.30;80.70
23147;DHT22;11742;53.532;-1.478;2023-09-19T03:47:39;16.40;80.70
23147;DHT22;11742;53.532;-1.478;2023-09-19T03:50:24;16.40;80.70
23147;DHT22;11742;53.532;-1.478;2023-09-19T03:53:08;16.30;80.60
23147;DHT22;11742;53.532;-1.478;2023-09-19T03:55:52;16.30;80.50
23147;DHT22;11742;53.532;-1.478;2023-09-19T03:58:37;16.30;80.70
23147;DHT22;11742;53.532;-1.478;2023-09-19T04:01:24;16.40;80.80
23147;DHT22;11742;53.532;-1.478;2023-09-19T04:04:08;16.30;80.70
23147;DHT22;11742;53.532;-1.478;2023-09-19T04:06:53;16.30;80.70
23147;DHT22;11742;53.532;-1.478;2023-09-19T04:09:37;16.30;80.80
23147;DHT22;11742;53.532;-1.478;2023-09-19T04:12:21;16.30;80.60
23147;DHT22;11742;53.532;-1.478;2023-09-19T04:15:07;16.30;80.70
23147;DHT22;11742;53.532;-1.478;2023-09-19T04:17:51;16.30;80.70
23147;DHT22;11742;53.532;-1.478;2023-09-19T04:20:35;16.30;80.70
23147;DHT22;11742;53.532;-1.478;2023-09-19T04:23:19;16.30;80.70
23147;DHT22;11742;53.532;-1.478;2023-09-19T04:26:04;16.30;80.70
23147;DHT22;11742;53.532;-1.478;2023-09-19T04:28:49;16.30;80.70
23147;DHT22;11742;53.532;-1.478;2023-09-19T04:31:33;16.30;80.80
23147;DHT22;11742;53.532;-1.478;2023-09-19T04:34:17;16.30;81.60
23147;DHT22;11742;53.532;-1.478;2023-09-19T04:37:02;16.30;80.80
23147;DHT22;11742;53.532;-1.478;2023-09-19T04:39:48;16.30;80.80
23147;DHT22;11742;53.532;-1.478;2023-09-19T04:42:32;16.30;80.90
23147;DHT22;11742;53.532;-1.478;2023-09-19T04:45:16;16.30;80.90
23147;DHT22;11742;53.532;-1.478;2023-09-19T04:48:00;16.30;80.80
23147;DHT22;11742;53.532;-1.478;2023-09-19T04:50:48;16.20;80.70
23147;DHT22;11742;53.532;-1.478;2023-09-19T04:53:33;16.20;80.70
23147;DHT22;11742;53.532;-1.478;2023-09-19T04:56:17;16.20;80.80
23147;DHT22;11742;53.532;-1.478;2023-09-19T04:59:03;16.20;80.70
23147;DHT22;11742;53.532;-1.478;2023-09-19T05:01:48;16.20;80.70
23147;DHT22;11742;53.532;-1.478;2023-09-19T05:04:32;16.20;80.70
23147;DHT22;11742;53.532;-1.478;2023-09-19T05:07:16;16.20;80.80
23147;DHT22;11742;53.532;-1.478;2023-09-19T05:10:02;16.20;80.70
23147;DHT22;11742;53.532;-1.478;2023-09-19T05:12:53;16.20;80.70
23147;DHT22;11742;53.532;-1.478;2023-09-19T05:15:37;16.20;80.80
23147;DHT22;11742;53.532;-1.478;2023-09-19T05:18:21;16.20;80.80
23147;DHT22;11742;53.532;-1.478;2023-09-19T05:21:06;16.20;80.80
23147;DHT22;11742;53.532;-1.478;2023-09-19T05:23:52;16.20;80.70
23147;DHT22;11742;53.532;-1.478;2023-09-19T05:26:36;16.20;80.80
23147;DHT22;11742;53.532;-1.478;2023-09-19T05:29:20;16.20;80.80
23147;DHT22;11742;53.532;-1.478;2023-09-19T05:32:05;16.10;80.70
23147;DHT22;11742;53.532;-1.478;2023-09-19T05:34:49;16.10;80.60
23147;DHT22;11742;53.532;-1.478;2023-09-19T05:37:37;16.10;80.80
23147;DHT22;11742;53.532;-1.478;2023-09-19T05:40:21;16.10;80.80
23147;DHT22;11742;53.532;-1.478;2023-09-19T05:43:05;16.10;80.90
23147;DHT22;11742;53.532;-1.478;2023-09-19T05:45:50;16.10;81.00
23147;DHT22;11742;53.532;-1.478;2023-09-19T05:48:40;16.10;81.00
23147;DHT22;11742;53.532;-1.478;2023-09-19T05:51:25;16.10;81.10
23147;DHT22;11742;53.532;-1.478;2023-09-19T05:54:12;16.10;81.10
23147;DHT22;11742;53.532;-1.478;2023-09-19T05:56:57;16.00;81.10
23147;DHT22;11742;53.532;-1.478;2023-09-19T05:59:42;16.00;81.20
23147;DHT22;11742;53.532;-1.478;2023-09-19T06:02:27;16.00;81.20
23147;DHT22;11742;53.532;-1.478;2023-09-19T06:05:14;16.00;81.30
23147;DHT22;11742;53.532;-1.478;2023-09-19T06:07:59;16.00;81.30
23147;DHT22;11742;53.532;-1.478;2023-09-19T06:10:44;16.00;81.30
23147;DHT22;11742;53.532;-1.478;2023-09-19T06:13:28;16.00;81.50
23147;DHT22;11742;53.532;-1.478;2023-09-19T06:16:12;16.00;81.40
23147;DHT22;11742;53.532;-1.478;2023-09-19T06:18:57;16.00;81.40
23147;DHT22;11742;53.532;-1.478;2023-09-19T06:21:41;16.00;81.50
23147;DHT22;11742;53.532;-1.478;2023-09-19T06:24:26;16.00;81.40
23147;DHT22;11742;53.532;-1.478;2023-09-19T06:27:10;16.00;81.50
23147;DHT22;11742;53.532;-1.478;2023-09-19T06:29:54;16.00;81.50
23147;DHT22;11742;53.532;-1.478;2023-09-19T06:32:40;16.00;81.60
23147;DHT22;11742;53.532;-1.478;2023-09-19T06:35:25;16.00;81.70
23147;DHT22;11742;53.532;-1.478;2023-09-19T06:38:10;16.00;81.80
23147;DHT22;11742;53.532;-1.478;2023-09-19T06:40:57;16.00;81.90
23147;DHT22;11742;53.532;-1.478;2023-09-19T06:43:42;16.00;81.90
23147;DHT22;11742;53.532;-1.478;2023-09-19T06:46:26;16.00;82.00
23147;DHT22;11742;53.532;-1.478;2023-09-19T06:49:17;16.00;82.20
23147;DHT22;11742;53.532;-1.478;2023-09-19T06:52:02;16.00;82.30
23147;DHT22;11742;53.532;-1.478;2023-09-19T06:54:46;16.00;82.20
23147;DHT22;11742;53.532;-1.478;2023-09-19T06:57:31;16.00;82.40
23147;DHT22;11742;53.532;-1.478;2023-09-19T07:00:16;16.00;82.60
23147;DHT22;11742;53.532;-1.478;2023-09-19T07:03:07;16.00;82.50
23147;DHT22;11742;53.532;-1.478;2023-09-19T07:05:55;16.00;82.50
23147;DHT22;11742;53.532;-1.478;2023-09-19T07:08:39;16.00;82.80
23147;DHT22;11742;53.532;-1.478;2023-09-19T07:11:23;16.00;82.90
23147;DHT22;11742;53.532;-1.478;2023-09-19T07:14:08;16.00;83.00
23147;DHT22;11742;53.532;-1.478;2023-09-19T07:16:55;16.10;83.10
23147;DHT22;11742;53.532;-1.478;2023-09-19T07:19:39;16.00;83.30
23147;DHT22;11742;53.532;-1.478;2023-09-19T07:22:26;16.10;83.50
23147;DHT22;11742;53.532;-1.478;2023-09-19T07:25:10;16.10;84.30
23147;DHT22;11742;53.532;-1.478;2023-09-19T07:27:58;16.10;83.50
23147;DHT22;11742;53.532;-1.478;2023-09-19T07:30:44;16.10;83.70
23147;DHT22;11742;53.532;-1.478;2023-09-19T07:33:28;16.10;84.00
23147;DHT22;11742;53.532;-1.478;2023-09-19T07:36:13;16.10;84.10
23147;DHT22;11742;53.532;-1.478;2023-09-19T07:38:57;16.10;84.30
23147;DHT22;11742;53.532;-1.478;2023-09-19T07:41:42;16.10;84.30
23147;DHT22;11742;53.532;-1.478;2023-09-19T07:44:26;16.10;84.50
23147;DHT22;11742;53.532;-1.478;2023-09-19T07:47:10;16.10;84.60
23147;DHT22;11742;53.532;-1.478;2023-09-19T07:49:54;16.20;84.70
23147;DHT22;11742;53.532;-1.478;2023-09-19T07:52:39;16.20;84.90
23147;DHT22;11742;53.532;-1.478;2023-09-19T07:55:24;16.20;85.10
23147;DHT22;11742;53.532;-1.478;2023-09-19T07:58:09;16.20;85.10
23147;DHT22;11742;53.532;-1.478;2023-09-19T08:00:53;16.30;85.10
23147;DHT22;11742;53.532;-1.478;2023-09-19T08:03:38;16.30;85.30
23147;DHT22;11742;53.532;-1.478;2023-09-19T08:06:26;16.30;85.70
23147;DHT22;11742;53.532;-1.478;2023-09-19T08:09:14;16.30;85.50
23147;DHT22;11742;53.532;-1.478;2023-09-19T08:12:05;16.40;85.70
23147;DHT22;11742;53.532;-1.478;2023-09-19T08:14:51;16.30;85.90
23147;DHT22;11742;53.532;-1.478;2023-09-19T08:17:35;16.40;85.90
23147;DHT22;11742;53.532;-1.478;2023-09-19T08:20:19;16.40;86.10
23147;DHT22;11742;53.532;-1.478;2023-09-19T08:23:04;16.40;86.10
23147;DHT22;11742;53.532;-1.478;2023-09-19T08:25:50;16.50;86.30
23147;DHT22;11742;53.532;-1.478;2023-09-19T08:28:35;16.50;86.40
23147;DHT22;11742;53.532;-1.478;2023-09-19T08:31:19;16.50;86.60
23147;DHT22;11742;53.532;-1.478;2023-09-19T08:34:03;16.50;86.60
23147;DHT22;11742;53.532;-1.478;2023-09-19T08:36:47;16.50;86.70
23147;DHT22;11742;53.532;-1.478;2023-09-19T08:39:32;16.60;86.80
23147;DHT22;11742;53.532;-1.478;2023-09-19T08:42:17;16.60;86.80
23147;DHT22;11742;53.532;-1.478;2023-09-19T08:45:04;16.60;86.90
23147;DHT22;11742;53.532;-1.478;2023-09-19T08:51:06;16.70;87.00
23147;DHT22;11742;53.532;-1.478;2023-09-19T08:54:06;16.70;87.40
23147;DHT22;11742;53.532;-1.478;2023-09-19T08:56:51;16.70;87.30
23147;DHT22;11742;53.532;-1.478;2023-09-19T08:59:38;16.70;87.10
23147;DHT22;11742;53.532;-1.478;2023-09-19T09:02:27;16.80;87.10
23147;DHT22;11742;53.532;-1.478;2023-09-19T09:05:12;16.80;87.00
23147;DHT22;11742;53.532;-1.478;2023-09-19T09:07:57;16.80;87.10
23147;DHT22;11742;53.532;-1.478;2023-09-19T09:10:44;16.90;87.10
23147;DHT22;11742;53.532;-1.478;2023-09-19T09:13:29;16.90;87.10
23147;DHT22;11742;53.532;-1.478;2023-09-19T09:16:14;17.00;87.20
23147;DHT22;11742;53.532;-1.478;2023-09-19T09:19:02;17.00;91.30
23147;DHT22;11742;53.532;-1.478;2023-09-19T09:21:46;17.20;92.90
23147;DHT22;11742;53.532;-1.478;2023-09-19T09:24:31;17.40;93.80
23147;DHT22;11742;53.532;-1.478;2023-09-19T09:27:20;17.50;94.40
23147;DHT22;11742;53.532;-1.478;2023-09-19T09:30:08;17.30;94.60
23147;DHT22;11742;53.532;-1.478;2023-09-19T09:33:11;17.30;94.90
23147;DHT22;11742;53.532;-1.478;2023-09-19T09:35:57;17.20;95.10
23147;DHT22;11742;53.532;-1.478;2023-09-19T09:38:44;17.10;95.10
23147;DHT22;11742;53.532;-1.478;2023-09-19T09:41:38;17.10;95.10
23147;DHT22;11742;53.532;-1.478;2023-09-19T09:44:23;17.10;95.20
23147;DHT22;11742;53.532;-1.478;2023-09-19T09:47:07;17.00;95.20
23147;DHT22;11742;53.532;-1.478;2023-09-19T09:50:11;17.00;95.20
23147;DHT22;11742;53.532;-1.478;2023-09-19T09:53:02;17.00;95.30
23147;DHT22;11742;53.532;-1.478;2023-09-19T09:58:53;17.10;95.30
23147;DHT22;11742;53.532;-1.478;2023-09-19T10:01:48;17.10;95.30
23147;DHT22;11742;53.532;-1.478;2023-09-19T10:04:33;17.10;95.30
23147;DHT22;11742;53.532;-1.478;2023-09-19T10:07:31;17.20;95.30
23147;DHT22;11742;53.532;-1.478;2023-09-19T10:10:38;17.20;95.20
23147;DHT22;11742;53.532;-1.478;2023-09-19T10:13:42;17.20;95.30
23147;DHT22;11742;53.532;-1.478;2023-09-19T10:16:30;17.30;95.30
23147;DHT22;11742;53.532;-1.478;2023-09-19T10:19:23;17.30;95.30
23147;DHT22;11742;53.532;-1.478;2023-09-19T10:22:08;17.40;95.30
23147;DHT22;11742;53.532;-1.478;2023-09-19T10:24:55;17.40;95.30
23147;DHT22;11742;53.532;-1.478;2023-09-19T10:27:41;17.50;95.40
23147;DHT22;11742;53.532;-1.478;2023-09-19T10:30:27;17.50;95.50
23147;DHT22;11742;53.532;-1.478;2023-09-19T10:33:16;17.60;95.60
23147;DHT22;11742;53.532;-1.478;2023-09-19T10:36:00;17.60;95.60
23147;DHT22;11742;53.532;-1.478;2023-09-19T10:38:46;17.70;95.60
23147;DHT22;11742;53.532;-1.478;2023-09-19T10:41:34;17.70;95.60
23147;DHT22;11742;53.532;-1.478;2023-09-19T10:44:23;17.80;95.60
23147;DHT22;11742;53.532;-1.478;2023-09-19T10:47:09;17.90;95.50
23147;DHT22;11742;53.532;-1.478;2023-09-19T10:49:54;17.90;95.50
23147;DHT22;11742;53.532;-1.478;2023-09-19T10:52:40;18.00;95.40
23147;DHT22;11742;53.532;-1.478;2023-09-19T10:55:28;18.00;95.30
23147;DHT22;11742;53.532;-1.478;2023-09-19T10:58:27;18.10;95.30
23147;DHT22;11742;53.532;-1.478;2023-09-19T11:01:13;18.20;95.20
23147;DHT22;11742;53.532;-1.478;2023-09-19T11:04:22;18.30;95.20
23147;DHT22;11742;53.532;-1.478;2023-09-19T11:07:12;18.30;95.20
23147;DHT22;11742;53.532;-1.478;2023-09-19T11:09:58;18.40;95.10
23147;DHT22;11742;53.532;-1.478;2023-09-19T11:27:11;18.80;95.10
23147;DHT22;11742;53.532;-1.478;2023-09-19T11:30:27;18.90;95.10
23147;DHT22;11742;53.532;-1.478;2023-09-19T11:33:28;18.90;95.10
23147;DHT22;11742;53.532;-1.478;2023-09-19T11:36:16;19.00;95.00
23147;DHT22;11742;53.532;-1.478;2023-09-19T11:39:03;19.00;95.00
23147;DHT22;11742;53.532;-1.478;2023-09-19T11:41:53;19.10;95.00
23147;DHT22;11742;53.532;-1.478;2023-09-19T11:44:40;19.10;95.00
23147;DHT22;11742;53.532;-1.478;2023-09-19T11:47:25;19.20;95.00
23147;DHT22;11742;53.532;-1.478;2023-09-19T11:50:09;19.20;95.00
23147;DHT22;11742;53.532;-1.478;2023-09-19T11:52:55;19.30;95.00
23147;DHT22;11742;53.532;-1.478;2023-09-19T11:55:41;19.30;95.00
23147;DHT22;11742;53.532;-1.478;2023-09-19T11:58:29;19.40;95.10
23147;DHT22;11742;53.532;-1.478;2023-09-19T12:01:16;19.40;95.10
23147;DHT22;11742;53.532;-1.478;2023-09-19T12:04:05;19.50;95.10
23147;DHT22;11742;53.532;-1.478;2023-09-19T12:06:56;19.50;95.10
23147;DHT22;11742;53.532;-1.478;2023-09-19T12:09:45;19.50;95.10
23147;DHT22;11742;53.532;-1.478;2023-09-19T12:12:33;19.60;95.10
23147;DHT22;11742;53.532;-1.478;2023-09-19T12:15:23;19.60;95.10
23147;DHT22;11742;53.532;-1.478;2023-09-19T12:18:45;19.70;95.20
23147;DHT22;11742;53.532;-1.478;2023-09-19T12:21:32;19.70;95.20
23147;DHT22;11742;53.532;-1.478;2023-09-19T12:24:18;19.80;95.20
23147;DHT22;11742;53.532;-1.478;2023-09-19T12:27:04;19.80;95.20
23147;DHT22;11742;53.532;-1.478;2023-09-19T12:29:49;19.80;95.20
23147;DHT22;11742;53.532;-1.478;2023-09-19T12:32:35;19.90;95.20
23147;DHT22;11742;53.532;-1.478;2023-09-19T12:35:31;19.90;95.20
23147;DHT22;11742;53.532;-1.478;2023-09-19T12:38:28;20.00;95.20
23147;DHT22;11742;53.532;-1.478;2023-09-19T12:41:13;20.00;95.20
23147;DHT22;11742;53.532;-1.478;2023-09-19T12:43:57;20.10;95.20
23147;DHT22;11742;53.532;-1.478;2023-09-19T12:46:44;20.10;95.20
23147;DHT22;11742;53.532;-1.478;2023-09-19T12:49:29;20.10;95.20
23147;DHT22;11742;53.532;-1.478;2023-09-19T12:52:13;20.20;95.20
23147;DHT22;11742;53.532;-1.478;2023-09-19T12:54:58;20.20;95.20
23147;DHT22;11742;53.532;-1.478;2023-09-19T12:58:16;20.30;95.30
23147;DHT22;11742;53.532;-1.478;2023-09-19T13:01:01;20.30;95.30
23147;DHT22;11742;53.532;-1.478;2023-09-19T13:07:02;20.40;95.20
23147;DHT22;11742;53.532;-1.478;2023-09-19T13:10:03;20.40;95.20
23147;DHT22;11742;53.532;-1.478;2023-09-19T13:12:48;20.50;95.30
23147;DHT22;11742;53.532;-1.478;2023-09-19T13:15:51;20.50;95.20
23147;DHT22;11742;53.532;-1.478;2023-09-19T13:18:55;20.50;95.20
23147;DHT22;11742;53.532;-1.478;2023-09-19T13:21:43;20.60;95.20
23147;DHT22;11742;53.532;-1.478;2023-09-19T13:24:29;20.60;95.20
23147;DHT22;11742;53.532;-1.478;2023-09-19T13:27:15;20.60;95.20
23147;DHT22;11742;53.532;-1.478;2023-09-19T13:29:59;20.60;95.20
23147;DHT22;11742;53.532;-1.478;2023-09-19T13:32:43;20.70;95.30
23147;DHT22;11742;53.532;-1.478;2023-09-19T13:35:28;20.70;95.20
23147;DHT22;11742;53.532;-1.478;2023-09-19T13:38:12;20.80;95.30
23147;DHT22;11742;53.532;-1.478;2023-09-19T13:40:57;20.80;95.30
23147;DHT22;11742;53.532;-1.478;2023-09-19T13:43:44;20.80;95.30
23147;DHT22;11742;53.532;-1.478;2023-09-19T13:46:32;20.90;95.40
23147;DHT22;11742;53.532;-1.478;2023-09-19T13:49:18;20.90;95.30
23147;DHT22;11742;53.532;-1.478;2023-09-19T13:52:03;20.90;95.40
23147;DHT22;11742;53.532;-1.478;2023-09-19T13:54:52;21.00;95.40
23147;DHT22;11742;53.532;-1.478;2023-09-19T13:57:40;21.00;95.30
23147;DHT22;11742;53.532;-1.478;2023-09-19T14:00:24;21.00;95.30
23147;DHT22;11742;53.532;-1.478;2023-09-19T14:03:08;21.00;95.30
23147;DHT22;11742;53.532;-1.478;2023-09-19T14:05:54;21.10;95.40
23147;DHT22;11742;53.532;-1.478;2023-09-19T14:08:39;21.10;95.40
23147;DHT22;11742;53.532;-1.478;2023-09-19T14:11:23;21.10;95.40
23147;DHT22;11742;53.532;-1.478;2023-09-19T14:14:07;21.20;95.40
23147;DHT22;11742;53.532;-1.478;2023-09-19T14:16:51;21.20;95.30
23147;DHT22;11742;53.532;-1.478;2023-09-19T14:19:41;21.20;95.40
23147;DHT22;11742;53.532;-1.478;2023-09-19T14:22:26;21.20;95.50
23147;DHT22;11742;53.532;-1.478;2023-09-19T14:25:10;21.30;95.60
23147;DHT22;11742;53.532;-1.478;2023-09-19T14:27:55;21.30;95.70
23147;DHT22;11742;53.532;-1.478;2023-09-19T14:30:39;21.30;95.70
23147;DHT22;11742;53.532;-1.478;2023-09-19T14:33:23;21.30;95.70
23147;DHT22;11742;53.532;-1.478;2023-09-19T14:36:09;21.40;95.70
23147;DHT22;11742;53.532;-1.478;2023-09-19T14:38:55;21.40;95.70
23147;DHT22;11742;53.532;-1.478;2023-09-19T14:41:40;21.40;95.70
23147;DHT22;11742;53.532;-1.478;2023-09-19T14:44:25;21.40;95.80
23147;DHT22;11742;53.532;-1.478;2023-09-19T14:47:09;21.40;95.90
23147;DHT22;11742;53.532;-1.478;2023-09-19T14:49:57;21.40;95.90
23147;DHT22;11742;53.532;-1.478;2023-09-19T14:52:42;21.40;95.80
23147;DHT22;11742;53.532;-1.478;2023-09-19T14:55:28;21.40;95.80
23147;DHT22;11742;53.532;-1.478;2023-09-19T14:58:14;21.40;95.80
23147;DHT22;11742;53.532;-1.478;2023-09-19T15:01:03;21.50;96.20
23147;DHT22;11742;53.532;-1.478;2023-09-19T15:03:48;21.50;95.80
23147;DHT22;11742;53.532;-1.478;2023-09-19T15:06:33;21.50;95.90
23147;DHT22;11742;53.532;-1.478;2023-09-19T15:09:18;21.50;96.10
23147;DHT22;11742;53.532;-1.478;2023-09-19T15:12:03;21.50;96.20
23147;DHT22;11742;53.532;-1.478;2023-09-19T15:14:47;21.50;96.20
23147;DHT22;11742;53.532;-1.478;2023-09-19T15:17:31;21.50;96.30
23147;DHT22;11742;53.532;-1.478;2023-09-19T15:20:16;21.40;96.30
23147;DHT22;11742;53.532;-1.478;2023-09-19T15:23:02;21.40;96.30
23147;DHT22;11742;53.532;-1.478;2023-09-19T15:25:49;21.40;96.30
23147;DHT22;11742;53.532;-1.478;2023-09-19T15:28:34;21.40;96.30
23147;DHT22;11742;53.532;-1.478;2023-09-19T15:31:19;21.40;96.30
23147;DHT22;11742;53.532;-1.478;2023-09-19T15:34:04;21.40;96.20
23147;DHT22;11742;53.532;-1.478;2023-09-19T15:36:49;21.40;96.20
23147;DHT22;11742;53.532;-1.478;2023-09-19T15:39:34;21.30;96.20
23147;DHT22;11742;53.532;-1.478;2023-09-19T15:42:19;21.30;96.10
23147;DHT22;11742;53.532;-1.478;2023-09-19T15:45:03;21.30;96.10
23147;DHT22;11742;53.532;-1.478;2023-09-19T15:47:47;21.30;96.00
23147;DHT22;11742;53.532;-1.478;2023-09-19T15:50:31;21.30;96.00
23147;DHT22;11742;53.532;-1.478;2023-09-19T15:53:15;21.30;95.90
23147;DHT22;11742;53.532;-1.478;2023-09-19T15:56:06;21.30;95.90
23147;DHT22;11742;53.532;-1.478;2023-09-19T15:58:51;21.20;95.90
23147;DHT22;11742;53.532;-1.478;2023-09-19T16:01:38;21.20;95.80
23147;DHT22;11742;53.532;-1.478;2023-09-19T16:04:22;21.20;95.80
23147;DHT22;11742;53.532;-1.478;2023-09-19T16:07:06;21.20;95.80
23147;DHT22;11742;53.532;-1.478;2023-09-19T16:09:51;21.20;95.90
23147;DHT22;11742;53.532;-1.478;2023-09-19T16:12:36;21.20;95.80
23147;DHT22;11742;53.532;-1.478;2023-09-19T16:15:22;21.20;95.80
23147;DHT22;11742;53.532;-1.478;2023-09-19T16:18:06;21.20;95.80
23147;DHT22;11742;53.532;-1.478;2023-09-19T16:20:50;21.20;95.80
23147;DHT22;11742;53.532;-1.478;2023-09-19T16:23:35;21.20;95.80
23147;DHT22;11742;53.532;-1.478;2023-09-19T16:26:20;21.20;95.80
23147;DHT22;11742;53.532;-1.478;2023-09-19T16:29:05;21.20;95.70
23147;DHT22;11742;53.532;-1.478;2023-09-19T16:31:49;21.20;95.80
23147;DHT22;11742;53.532;-1.478;2023-09-19T16:34:34;21.20;95.80
23147;DHT22;11742;53.532;-1.478;2023-09-19T16:37:18;21.20;95.80
23147;DHT22;11742;53.532;-1.478;2023-09-19T16:40:03;21.20;95.80
23147;DHT22;11742;53.532;-1.478;2023-09-19T16:42:49;21.20;95.70
23147;DHT22;11742;53.532;-1.478;2023-09-19T16:45:33;21.20;95.70
23147;DHT22;11742;53.532;-1.478;2023-09-19T16:48:18;21.20;95.60
23147;DHT22;11742;53.532;-1.478;2023-09-19T16:51:04;21.20;95.60
23147;DHT22;11742;53.532;-1.478;2023-09-19T16:53:48;21.20;95.60
23147;DHT22;11742;53.532;-1.478;2023-09-19T16:56:36;21.20;95.40
23147;DHT22;11742;53.532;-1.478;2023-09-19T16:59:22;21.20;95.60
23147;DHT22;11742;53.532;-1.478;2023-09-19T17:02:07;21.10;95.70
23147;DHT22;11742;53.532;-1.478;2023-09-19T17:04:52;21.10;95.70
23147;DHT22;11742;53.532;-1.478;2023-09-19T17:07:37;21.20;95.70
23147;DHT22;11742;53.532;-1.478;2023-09-19T17:10:22;21.20;95.60
23147;DHT22;11742;53.532;-1.478;2023-09-19T17:13:07;21.20;95.60
23147;DHT22;11742;53.532;-1.478;2023-09-19T17:16:13;21.20;95.50
23147;DHT22;11742;53.532;-1.478;2023-09-19T17:19:03;21.20;95.50
23147;DHT22;11742;53.532;-1.478;2023-09-19T17:21:48;21.20;95.40
23147;DHT22;11742;53.532;-1.478;2023-09-19T17:24:33;21.20;95.40
23147;DHT22;11742;53.532;-1.478;2023-09-19T17:27:17;21.20;95.30
23147;DHT22;11742;53.532;-1.478;2023-09-19T17:30:02;21.30;95.30
23147;DHT22;11742;53.532;-1.478;2023-09-19T17:32:49;21.30;95.30
23147;DHT22;11742;53.532;-1.478;2023-09-19T17:35:33;21.30;95.20
23147;DHT22;11742;53.532;-1.478;2023-09-19T17:38:17;21.30;95.10
23147;DHT22;11742;53.532;-1.478;2023-09-19T17:41:02;21.30;95.00
23147;DHT22;11742;53.532;-1.478;2023-09-19T17:43:55;21.20;95.00
23147;DHT22;11742;53.532;-1.478;2023-09-19T17:46:39;21.20;95.00
23147;DHT22;11742;53.532;-1.478;2023-09-19T17:49:24;21.20;94.90